sensor_id;sensor_type;location;lat;lon;timestamp;P1;durP1;ratioP1;P2;durP2;ratioP2
79076;SDS011;68477;42.698;23.342;2023-12-20T00:00:24;310.92;;;186.48;;
79076;SDS011;68477;42.698;23.342;2023-12-20T00:02:50;312.02;;;179.13;;
79076;SDS011;68477;42.698;23.342;2023-12-20T00:05:15;292.15;;;166.95;;
79076;SDS011;68477;42.698;23.342;2023-12-20T00:07:41;285.75;;;164.20;;
79076;SDS011;68477;42.698;23.342;2023-12-20T00:10:06;267.48;;;153.45;;
79076;SDS011;68477;42.698;23.342;2023-12-20T00:12:32;284.58;;;168.45;;
79076;SDS011;68477;42.698;23.342;2023-12-20T00:14:58;262.88;;;146.65;;
79076;SDS011;68477;42.698;23.342;2023-12-20T00:17:23;250.35;;;144.45;;
79076;SDS011;68477;42.698;23.342;2023-12-20T00:19:49;236.38;;;138.20;;
79076;SDS011;68477;42.698;23.342;2023-12-20T00:22:14;227.18;;;133.45;;
79076;SDS011;68477;42.698;23.342;2023-12-20T00:24:40;254.07;;;146.35;;
79076;SDS011;68477;42.698;23.342;2023-12-20T00:27:05;266.25;;;153.70;;
79076;SDS011;68477;42.698;23.342;2023-12-20T00:29:31;273.33;;;158.52;;
79076;SDS011;68477;42.698;23.342;2023-12-20T00:31:56;304.13;;;176.80;;
79076;SDS011;68477;42.698;23.342;2023-12-20T00:34:22;295.50;;;163.10;;
79076;SDS011;68477;42.698;23.342;2023-12-20T00:36:47;288.58;;;161.60;;
79076;SDS011;68477;42.698;23.342;2023-12-20T00:39:13;294.10;;;163.80;;
79076;SDS011;68477;42.698;23.342;2023-12-20T00:41:40;286.23;;;161.05;;
79076;SDS011;68477;42.698;23.342;2023-12-20T00:44:05;298.50;;;181.13;;
79076;SDS011;68477;42.698;23.342;2023-12-20T00:46:30;287.40;;;171.15;;
79076;SDS011;68477;42.698;23.342;2023-12-20T00:48:56;284.55;;;175.35;;
79076;SDS011;68477;42.698;23.342;2023-12-20T00:51:22;304.20;;;171.45;;
79076;SDS011;68477;42.698;23.342;2023-12-20T00:53:49;301.88;;;168.70;;
79076;SDS011;68477;42.698;23.342;2023-12-20T00:56:15;307.83;;;172.15;;
79076;SDS011;68477;42.698;23.342;2023-12-20T00:58:40;322.48;;;170.23;;
79076;SDS011;68477;42.698;23.342;2023-12-20T01:01:06;279.58;;;157.32;;
79076;SDS011;68477;42.698;23.342;2023-12-20T01:03:31;270.58;;;147.77;;
79076;SDS011;68477;42.698;23.342;2023-12-20T01:05:57;266.88;;;153.40;;
79076;SDS011;68477;42.698;23.342;2023-12-20T01:08:22;262.73;;;150.07;;
79076;SDS011;68477;42.698;23.342;2023-12-20T01:10:48;278.30;;;155.15;;
79076;SDS011;68477;42.698;23.342;2023-12-20T01:13:15;283.55;;;155.88;;
79076;SDS011;68477;42.698;23.342;2023-12-20T01:15:40;276.05;;;156.10;;
79076;SDS011;68477;42.698;23.342;2023-12-20T01:18:06;274.83;;;157.50;;
79076;SDS011;68477;42.698;23.342;2023-12-20T01:20:32;269.42;;;152.93;;
79076;SDS011;68477;42.698;23.342;2023-12-20T01:22:57;268.02;;;149.93;;
79076;SDS011;68477;42.698;23.342;2023-12-20T01:25:23;273.98;;;155.15;;
79076;SDS011;68477;42.698;23.342;2023-12-20T01:27:48;264.63;;;146.50;;
79076;SDS011;68477;42.698;23.342;2023-12-20T01:30:14;256.90;;;143.52;;
79076;SDS011;68477;42.698;23.342;2023-12-20T01:32:40;254.35;;;138.73;;
79076;SDS011;68477;42.698;23.342;2023-12-20T01:35:05;245.90;;;137.50;;
79076;SDS011;68477;42.698;23.342;2023-12-20T01:37:31;249.52;;;138.48;;
79076;SDS011;68477;42.698;23.342;2023-12-20T01:39:57;229.25;;;132.65;;
79076;SDS011;68477;42.698;23.342;2023-12-20T01:42:23;225.35;;;126.95;;
79076;SDS011;68477;42.698;23.342;2023-12-20T01:44:49;212.13;;;116.90;;
79076;SDS011;68477;42.698;23.342;2023-12-20T01:47:14;200.40;;;113.38;;
79076;SDS011;68477;42.698;23.342;2023-12-20T01:49:40;174.18;;;96.30;;
79076;SDS011;68477;42.698;23.342;2023-12-20T01:52:06;150.25;;;84.95;;
79076;SDS011;68477;42.698;23.342;2023-12-20T01:54:33;147.65;;;80.88;;
79076;SDS011;68477;42.698;23.342;2023-12-20T01:57:00;121.13;;;59.63;;
79076;SDS011;68477;42.698;23.342;2023-12-20T01:59:26;162.13;;;93.80;;
79076;SDS011;68477;42.698;23.342;2023-12-20T02:01:54;146.43;;;81.00;;
79076;SDS011;68477;42.698;23.342;2023-12-20T02:04:19;132.88;;;72.15;;
79076;SDS011;68477;42.698;23.342;2023-12-20T02:06:46;141.95;;;74.05;;
79076;SDS011;68477;42.698;23.342;2023-12-20T02:09:12;136.40;;;75.55;;
79076;SDS011;68477;42.698;23.342;2023-12-20T02:11:38;131.95;;;74.00;;
79076;SDS011;68477;42.698;23.342;2023-12-20T02:14:03;129.65;;;70.88;;
79076;SDS011;68477;42.698;23.342;2023-12-20T02:16:30;131.43;;;74.63;;
79076;SDS011;68477;42.698;23.342;2023-12-20T02:18:55;135.27;;;69.70;;
79076;SDS011;68477;42.698;23.342;2023-12-20T02:21:33;140.50;;;71.43;;
79076;SDS011;68477;42.698;23.342;2023-12-20T02:24:02;143.82;;;73.82;;
79076;SDS011;68477;42.698;23.342;2023-12-20T02:26:27;144.23;;;72.18;;
79076;SDS011;68477;42.698;23.342;2023-12-20T02:28:53;165.50;;;80.40;;
79076;SDS011;68477;42.698;23.342;2023-12-20T02:31:23;138.90;;;74.32;;
79076;SDS011;68477;42.698;23.342;2023-12-20T02:33:48;170.63;;;79.03;;
79076;SDS011;68477;42.698;23.342;2023-12-20T02:36:14;152.93;;;71.03;;
79076;SDS011;68477;42.698;23.342;2023-12-20T02:38:40;147.27;;;75.30;;
79076;SDS011;68477;42.698;23.342;2023-12-20T02:41:05;197.55;;;92.22;;
79076;SDS011;68477;42.698;23.342;2023-12-20T02:43:31;170.18;;;84.80;;
79076;SDS011;68477;42.698;23.342;2023-12-20T02:45:56;199.00;;;84.15;;
79076;SDS011;68477;42.698;23.342;2023-12-20T02:48:22;160.00;;;78.68;;
79076;SDS011;68477;42.698;23.342;2023-12-20T02:50:47;157.02;;;69.57;;
79076;SDS011;68477;42.698;23.342;2023-12-20T02:53:14;244.70;;;84.75;;
79076;SDS011;68477;42.698;23.342;2023-12-20T02:55:39;86.40;;;39.25;;
79076;SDS011;68477;42.698;23.342;2023-12-20T02:58:05;264.13;;;94.57;;
79076;SDS011;68477;42.698;23.342;2023-12-20T03:00:31;201.48;;;86.15;;
79076;SDS011;68477;42.698;23.342;2023-12-20T03:02:56;220.15;;;75.93;;
79076;SDS011;68477;42.698;23.342;2023-12-20T03:05:21;237.60;;;84.43;;
79076;SDS011;68477;42.698;23.342;2023-12-20T03:07:47;218.05;;;91.38;;
79076;SDS011;68477;42.698;23.342;2023-12-20T03:10:12;196.43;;;87.32;;
79076;SDS011;68477;42.698;23.342;2023-12-20T03:12:38;170.05;;;81.05;;
79076;SDS011;68477;42.698;23.342;2023-12-20T03:15:04;173.55;;;75.50;;
79076;SDS011;68477;42.698;23.342;2023-12-20T03:17:29;193.05;;;75.30;;
79076;SDS011;68477;42.698;23.342;2023-12-20T03:19:55;152.48;;;70.90;;
79076;SDS011;68477;42.698;23.342;2023-12-20T03:22:20;164.20;;;72.75;;
79076;SDS011;68477;42.698;23.342;2023-12-20T03:24:46;192.40;;;81.63;;
79076;SDS011;68477;42.698;23.342;2023-12-20T03:27:11;177.55;;;83.25;;
79076;SDS011;68477;42.698;23.342;2023-12-20T03:29:37;213.68;;;87.80;;
79076;SDS011;68477;42.698;23.342;2023-12-20T03:32:03;173.35;;;84.75;;
79076;SDS011;68477;42.698;23.342;2023-12-20T03:34:28;185.18;;;82.05;;
79076;SDS011;68477;42.698;23.342;2023-12-20T03:36:54;189.45;;;82.85;;
79076;SDS011;68477;42.698;23.342;2023-12-20T03:39:20;202.98;;;84.45;;
79076;SDS011;68477;42.698;23.342;2023-12-20T03:41:45;200.05;;;81.93;;
79076;SDS011;68477;42.698;23.342;2023-12-20T03:44:11;215.35;;;83.03;;
79076;SDS011;68477;42.698;23.342;2023-12-20T03:46:36;190.68;;;85.65;;
79076;SDS011;68477;42.698;23.342;2023-12-20T03:49:02;228.38;;;91.75;;
79076;SDS011;68477;42.698;23.342;2023-12-20T03:51:27;183.63;;;82.72;;
79076;SDS011;68477;42.698;23.342;2023-12-20T03:53:53;81.35;;;41.78;;
79076;SDS011;68477;42.698;23.342;2023-12-20T03:56:18;252.27;;;87.47;;
79076;SDS011;68477;42.698;23.342;2023-12-20T03:58:44;175.00;;;77.32;;
79076;SDS011;68477;42.698;23.342;2023-12-20T04:01:09;188.48;;;78.80;;
79076;SDS011;68477;42.698;23.342;2023-12-20T04:03:38;189.50;;;81.13;;
79076;SDS011;68477;42.698;23.342;2023-12-20T04:06:05;168.73;;;74.53;;
79076;SDS011;68477;42.698;23.342;2023-12-20T04:08:30;142.27;;;74.45;;
79076;SDS011;68477;42.698;23.342;2023-12-20T04:10:57;154.30;;;74.97;;
79076;SDS011;68477;42.698;23.342;2023-12-20T04:13:22;176.73;;;80.28;;
79076;SDS011;68477;42.698;23.342;2023-12-20T04:15:48;186.90;;;77.95;;
79076;SDS011;68477;42.698;23.342;2023-12-20T04:18:16;119.03;;;64.78;;
79076;SDS011;68477;42.698;23.342;2023-12-20T04:20:41;127.57;;;61.95;;
79076;SDS011;68477;42.698;23.342;2023-12-20T04:23:06;145.32;;;63.17;;
79076;SDS011;68477;42.698;23.342;2023-12-20T04:25:32;161.93;;;66.80;;
79076;SDS011;68477;42.698;23.342;2023-12-20T04:27:57;147.80;;;70.65;;
79076;SDS011;68477;42.698;23.342;2023-12-20T04:30:23;177.30;;;73.50;;
79076;SDS011;68477;42.698;23.342;2023-12-20T04:32:49;148.27;;;72.05;;
79076;SDS011;68477;42.698;23.342;2023-12-20T04:35:14;146.80;;;72.65;;
79076;SDS011;68477;42.698;23.342;2023-12-20T04:37:40;169.20;;;74.15;;
79076;SDS011;68477;42.698;23.342;2023-12-20T04:40:06;190.45;;;72.40;;
79076;SDS011;68477;42.698;23.342;2023-12-20T04:42:33;183.95;;;78.65;;
79076;SDS011;68477;42.698;23.342;2023-12-20T04:44:58;188.27;;;77.93;;
79076;SDS011;68477;42.698;23.342;2023-12-20T04:47:24;185.48;;;79.30;;
79076;SDS011;68477;42.698;23.342;2023-12-20T04:49:49;181.65;;;76.53;;
79076;SDS011;68477;42.698;23.342;2023-12-20T04:52:15;151.82;;;78.43;;
79076;SDS011;68477;42.698;23.342;2023-12-20T04:54:40;104.15;;;44.80;;
79076;SDS011;68477;42.698;23.342;2023-12-20T04:57:06;169.63;;;82.60;;
79076;SDS011;68477;42.698;23.342;2023-12-20T04:59:31;164.15;;;83.47;;
79076;SDS011;68477;42.698;23.342;2023-12-20T05:01:57;151.18;;;78.63;;
79076;SDS011;68477;42.698;23.342;2023-12-20T05:04:23;156.52;;;82.00;;
79076;SDS011;68477;42.698;23.342;2023-12-20T05:06:49;151.55;;;79.30;;
79076;SDS011;68477;42.698;23.342;2023-12-20T05:09:16;172.38;;;83.57;;
79076;SDS011;68477;42.698;23.342;2023-12-20T05:11:42;176.68;;;92.20;;
79076;SDS011;68477;42.698;23.342;2023-12-20T05:14:08;214.10;;;99.80;;
79076;SDS011;68477;42.698;23.342;2023-12-20T05:16:33;195.07;;;99.65;;
79076;SDS011;68477;42.698;23.342;2023-12-20T05:18:59;193.85;;;92.15;;
79076;SDS011;68477;42.698;23.342;2023-12-20T05:21:26;175.88;;;89.65;;
79076;SDS011;68477;42.698;23.342;2023-12-20T05:23:53;170.23;;;85.97;;
79076;SDS011;68477;42.698;23.342;2023-12-20T05:26:18;202.65;;;96.72;;
79076;SDS011;68477;42.698;23.342;2023-12-20T05:28:43;195.70;;;93.88;;
79076;SDS011;68477;42.698;23.342;2023-12-20T05:31:09;182.70;;;89.13;;
79076;SDS011;68477;42.698;23.342;2023-12-20T05:33:34;240.90;;;93.28;;
79076;SDS011;68477;42.698;23.342;2023-12-20T05:36:00;187.80;;;89.93;;
79076;SDS011;68477;42.698;23.342;2023-12-20T05:38:25;196.30;;;84.50;;
79076;SDS011;68477;42.698;23.342;2023-12-20T05:40:52;187.13;;;86.10;;
79076;SDS011;68477;42.698;23.342;2023-12-20T05:43:18;155.85;;;75.40;;
79076;SDS011;68477;42.698;23.342;2023-12-20T05:45:44;155.45;;;74.65;;
79076;SDS011;68477;42.698;23.342;2023-12-20T05:48:10;180.35;;;78.68;;
79076;SDS011;68477;42.698;23.342;2023-12-20T05:50:37;178.15;;;81.50;;
79076;SDS011;68477;42.698;23.342;2023-12-20T05:53:04;62.78;;;33.40;;
79076;SDS011;68477;42.698;23.342;2023-12-20T05:55:30;229.43;;;96.75;;
79076;SDS011;68477;42.698;23.342;2023-12-20T05:57:55;190.07;;;89.75;;
79076;SDS011;68477;42.698;23.342;2023-12-20T06:00:21;156.77;;;80.25;;
79076;SDS011;68477;42.698;23.342;2023-12-20T06:02:46;217.63;;;84.15;;
79076;SDS011;68477;42.698;23.342;2023-12-20T06:05:12;221.57;;;86.13;;
79076;SDS011;68477;42.698;23.342;2023-12-20T06:07:37;188.43;;;80.10;;
79076;SDS011;68477;42.698;23.342;2023-12-20T06:10:03;81.30;;;39.63;;
79076;SDS011;68477;42.698;23.342;2023-12-20T06:12:28;77.65;;;42.90;;
79076;SDS011;68477;42.698;23.342;2023-12-20T06:14:57;86.15;;;40.33;;
79076;SDS011;68477;42.698;23.342;2023-12-20T06:17:22;81.80;;;37.95;;
79076;SDS011;68477;42.698;23.342;2023-12-20T06:19:48;93.03;;;40.92;;
79076;SDS011;68477;42.698;23.342;2023-12-20T06:22:14;85.53;;;38.90;;
79076;SDS011;68477;42.698;23.342;2023-12-20T06:24:40;80.97;;;38.53;;
79076;SDS011;68477;42.698;23.342;2023-12-20T06:27:06;87.65;;;39.58;;
79076;SDS011;68477;42.698;23.342;2023-12-20T06:29:31;91.95;;;42.38;;
79076;SDS011;68477;42.698;23.342;2023-12-20T06:31:57;87.80;;;40.70;;
79076;SDS011;68477;42.698;23.342;2023-12-20T06:34:22;90.57;;;37.80;;
79076;SDS011;68477;42.698;23.342;2023-12-20T06:36:48;69.28;;;34.60;;
79076;SDS011;68477;42.698;23.342;2023-12-20T06:39:13;92.15;;;39.85;;
79076;SDS011;68477;42.698;23.342;2023-12-20T06:41:39;55.72;;;26.05;;
79076;SDS011;68477;42.698;23.342;2023-12-20T06:44:05;87.00;;;39.58;;
79076;SDS011;68477;42.698;23.342;2023-12-20T06:46:30;81.80;;;38.35;;
79076;SDS011;68477;42.698;23.342;2023-12-20T06:48:56;99.78;;;40.72;;
79076;SDS011;68477;42.698;23.342;2023-12-20T06:51:21;84.35;;;37.00;;
79076;SDS011;68477;42.698;23.342;2023-12-20T06:53:50;79.20;;;36.78;;
79076;SDS011;68477;42.698;23.342;2023-12-20T06:56:16;62.28;;;33.60;;
79076;SDS011;68477;42.698;23.342;2023-12-20T06:58:42;82.43;;;36.88;;
79076;SDS011;68477;42.698;23.342;2023-12-20T07:01:11;81.07;;;38.10;;
79076;SDS011;68477;42.698;23.342;2023-12-20T07:03:38;89.43;;;39.47;;
79076;SDS011;68477;42.698;23.342;2023-12-20T07:06:04;71.20;;;35.22;;
79076;SDS011;68477;42.698;23.342;2023-12-20T07:08:29;80.22;;;39.47;;
79076;SDS011;68477;42.698;23.342;2023-12-20T07:10:55;84.90;;;40.35;;
79076;SDS011;68477;42.698;23.342;2023-12-20T07:13:20;83.80;;;36.88;;
79076;SDS011;68477;42.698;23.342;2023-12-20T07:15:47;89.38;;;36.67;;
79076;SDS011;68477;42.698;23.342;2023-12-20T07:18:12;83.57;;;36.70;;
79076;SDS011;68477;42.698;23.342;2023-12-20T07:20:38;82.03;;;37.95;;
79076;SDS011;68477;42.698;23.342;2023-12-20T07:23:04;87.72;;;39.55;;
79076;SDS011;68477;42.698;23.342;2023-12-20T07:25:29;82.18;;;36.08;;
79076;SDS011;68477;42.698;23.342;2023-12-20T07:27:57;76.43;;;36.47;;
79076;SDS011;68477;42.698;23.342;2023-12-20T07:30:23;80.13;;;33.53;;
79076;SDS011;68477;42.698;23.342;2023-12-20T07:32:49;78.55;;;36.28;;
79076;SDS011;68477;42.698;23.342;2023-12-20T07:35:17;73.18;;;36.50;;
79076;SDS011;68477;42.698;23.342;2023-12-20T07:37:43;79.65;;;34.47;;
79076;SDS011;68477;42.698;23.342;2023-12-20T07:40:09;70.68;;;37.53;;
79076;SDS011;68477;42.698;23.342;2023-12-20T07:42:35;77.57;;;39.53;;
79076;SDS011;68477;42.698;23.342;2023-12-20T07:45:00;76.82;;;39.40;;
79076;SDS011;68477;42.698;23.342;2023-12-20T07:47:26;82.05;;;37.15;;
79076;SDS011;68477;42.698;23.342;2023-12-20T07:49:51;86.72;;;41.45;;
79076;SDS011;68477;42.698;23.342;2023-12-20T07:52:17;81.90;;;38.08;;
79076;SDS011;68477;42.698;23.342;2023-12-20T07:54:43;85.25;;;40.90;;
79076;SDS011;68477;42.698;23.342;2023-12-20T07:57:10;80.00;;;38.17;;
79076;SDS011;68477;42.698;23.342;2023-12-20T07:59:36;89.80;;;42.00;;
79076;SDS011;68477;42.698;23.342;2023-12-20T08:02:01;98.32;;;45.55;;
79076;SDS011;68477;42.698;23.342;2023-12-20T08:04:27;85.25;;;38.92;;
79076;SDS011;68477;42.698;23.342;2023-12-20T08:06:53;67.97;;;33.30;;
79076;SDS011;68477;42.698;23.342;2023-12-20T08:09:18;82.03;;;38.55;;
79076;SDS011;68477;42.698;23.342;2023-12-20T08:11:47;88.40;;;41.13;;
79076;SDS011;68477;42.698;23.342;2023-12-20T08:14:13;77.95;;;38.83;;
79076;SDS011;68477;42.698;23.342;2023-12-20T08:16:39;81.88;;;38.80;;
79076;SDS011;68477;42.698;23.342;2023-12-20T08:19:05;84.95;;;39.90;;
79076;SDS011;68477;42.698;23.342;2023-12-20T08:21:30;83.15;;;40.08;;
79076;SDS011;68477;42.698;23.342;2023-12-20T08:23:56;89.13;;;41.53;;
79076;SDS011;68477;42.698;23.342;2023-12-20T08:26:22;80.25;;;36.60;;
79076;SDS011;68477;42.698;23.342;2023-12-20T08:28:49;91.75;;;42.03;;
79076;SDS011;68477;42.698;23.342;2023-12-20T08:31:18;89.43;;;43.00;;
79076;SDS011;68477;42.698;23.342;2023-12-20T08:33:44;102.05;;;42.33;;
79076;SDS011;68477;42.698;23.342;2023-12-20T08:36:10;82.93;;;38.80;;
79076;SDS011;68477;42.698;23.342;2023-12-20T08:38:36;88.05;;;41.45;;
79076;SDS011;68477;42.698;23.342;2023-12-20T08:41:02;94.05;;;42.67;;
79076;SDS011;68477;42.698;23.342;2023-12-20T08:43:30;92.15;;;41.45;;
79076;SDS011;68477;42.698;23.342;2023-12-20T08:45:56;97.80;;;42.78;;
79076;SDS011;68477;42.698;23.342;2023-12-20T08:48:21;84.35;;;39.08;;
79076;SDS011;68477;42.698;23.342;2023-12-20T08:50:47;90.85;;;38.85;;
79076;SDS011;68477;42.698;23.342;2023-12-20T08:53:15;87.13;;;40.47;;
79076;SDS011;68477;42.698;23.342;2023-12-20T08:55:41;86.32;;;38.92;;
79076;SDS011;68477;42.698;23.342;2023-12-20T08:58:07;94.30;;;44.97;;
79076;SDS011;68477;42.698;23.342;2023-12-20T09:00:33;107.20;;;52.38;;
79076;SDS011;68477;42.698;23.342;2023-12-20T09:02:59;92.95;;;45.25;;
79076;SDS011;68477;42.698;23.342;2023-12-20T09:05:25;89.55;;;41.63;;
79076;SDS011;68477;42.698;23.342;2023-12-20T09:07:50;103.15;;;44.42;;
79076;SDS011;68477;42.698;23.342;2023-12-20T09:10:16;87.72;;;40.80;;
79076;SDS011;68477;42.698;23.342;2023-12-20T09:12:49;84.88;;;38.90;;
79076;SDS011;68477;42.698;23.342;2023-12-20T09:15:15;69.32;;;30.25;;
79076;SDS011;68477;42.698;23.342;2023-12-20T09:17:41;71.68;;;32.78;;
79076;SDS011;68477;42.698;23.342;2023-12-20T09:20:07;75.47;;;32.20;;
79076;SDS011;68477;42.698;23.342;2023-12-20T09:22:33;83.32;;;36.25;;
79076;SDS011;68477;42.698;23.342;2023-12-20T09:24:59;74.32;;;32.33;;
79076;SDS011;68477;42.698;23.342;2023-12-20T09:27:25;86.78;;;38.67;;
79076;SDS011;68477;42.698;23.342;2023-12-20T09:29:51;83.32;;;36.85;;
79076;SDS011;68477;42.698;23.342;2023-12-20T09:32:16;90.43;;;37.65;;
79076;SDS011;68477;42.698;23.342;2023-12-20T09:34:42;78.78;;;37.78;;
79076;SDS011;68477;42.698;23.342;2023-12-20T09:37:07;93.55;;;38.67;;
79076;SDS011;68477;42.698;23.342;2023-12-20T09:39:33;83.90;;;37.22;;
79076;SDS011;68477;42.698;23.342;2023-12-20T09:42:02;98.05;;;40.95;;
79076;SDS011;68477;42.698;23.342;2023-12-20T09:44:29;95.22;;;39.42;;
79076;SDS011;68477;42.698;23.342;2023-12-20T09:46:56;98.13;;;37.85;;
79076;SDS011;68477;42.698;23.342;2023-12-20T09:49:22;94.68;;;36.92;;
79076;SDS011;68477;42.698;23.342;2023-12-20T09:51:49;91.88;;;36.92;;
79076;SDS011;68477;42.698;23.342;2023-12-20T09:54:19;81.25;;;33.40;;
79076;SDS011;68477;42.698;23.342;2023-12-20T09:56:46;101.78;;;42.58;;
79076;SDS011;68477;42.698;23.342;2023-12-20T09:59:13;93.72;;;37.45;;
79076;SDS011;68477;42.698;23.342;2023-12-20T10:01:42;85.70;;;34.17;;
79076;SDS011;68477;42.698;23.342;2023-12-20T10:04:09;74.70;;;35.22;;
79076;SDS011;68477;42.698;23.342;2023-12-20T10:06:42;84.53;;;36.85;;
79076;SDS011;68477;42.698;23.342;2023-12-20T10:11:36;85.00;;;36.00;;
79076;SDS011;68477;42.698;23.342;2023-12-20T10:14:10;81.35;;;34.95;;
79076;SDS011;68477;42.698;23.342;2023-12-20T10:16:36;73.18;;;32.78;;
79076;SDS011;68477;42.698;23.342;2023-12-20T10:19:01;81.80;;;32.05;;
79076;SDS011;68477;42.698;23.342;2023-12-20T10:21:27;90.68;;;34.65;;
79076;SDS011;68477;42.698;23.342;2023-12-20T10:23:56;89.18;;;36.22;;
79076;SDS011;68477;42.698;23.342;2023-12-20T10:28:52;73.75;;;32.03;;
79076;SDS011;68477;42.698;23.342;2023-12-20T10:31:33;87.97;;;34.83;;
79076;SDS011;68477;42.698;23.342;2023-12-20T10:34:00;97.10;;;36.50;;
79076;SDS011;68477;42.698;23.342;2023-12-20T10:36:31;104.40;;;42.72;;
79076;SDS011;68477;42.698;23.342;2023-12-20T10:38:58;134.40;;;66.10;;
79076;SDS011;68477;42.698;23.342;2023-12-20T10:41:28;100.80;;;46.92;;
79076;SDS011;68477;42.698;23.342;2023-12-20T10:44:00;115.40;;;48.65;;
79076;SDS011;68477;42.698;23.342;2023-12-20T10:46:29;100.68;;;45.83;;
79076;SDS011;68477;42.698;23.342;2023-12-20T10:51:22;109.30;;;38.78;;
79076;SDS011;68477;42.698;23.342;2023-12-20T10:53:49;110.47;;;44.58;;
79076;SDS011;68477;42.698;23.342;2023-12-20T10:56:19;105.90;;;48.80;;
79076;SDS011;68477;42.698;23.342;2023-12-20T10:58:46;97.32;;;41.47;;
79076;SDS011;68477;42.698;23.342;2023-12-20T11:01:13;89.28;;;39.10;;
79076;SDS011;68477;42.698;23.342;2023-12-20T11:03:43;95.85;;;37.92;;
79076;SDS011;68477;42.698;23.342;2023-12-20T11:06:29;99.57;;;42.97;;
79076;SDS011;68477;42.698;23.342;2023-12-20T11:14:12;84.85;;;36.33;;
79076;SDS011;68477;42.698;23.342;2023-12-20T11:16:44;93.60;;;39.58;;
79076;SDS011;68477;42.698;23.342;2023-12-20T11:19:11;84.80;;;38.28;;
79076;SDS011;68477;42.698;23.342;2023-12-20T11:21:39;80.75;;;35.95;;
79076;SDS011;68477;42.698;23.342;2023-12-20T11:24:05;83.07;;;37.60;;
79076;SDS011;68477;42.698;23.342;2023-12-20T11:26:31;94.05;;;40.08;;
79076;SDS011;68477;42.698;23.342;2023-12-20T11:31:54;88.43;;;38.65;;
79076;SDS011;68477;42.698;23.342;2023-12-20T11:34:20;84.28;;;39.22;;
79076;SDS011;68477;42.698;23.342;2023-12-20T11:36:45;87.10;;;41.63;;
79076;SDS011;68477;42.698;23.342;2023-12-20T11:39:11;87.57;;;38.08;;
79076;SDS011;68477;42.698;23.342;2023-12-20T11:41:38;99.20;;;45.53;;
79076;SDS011;68477;42.698;23.342;2023-12-20T11:44:04;94.47;;;42.75;;
79076;SDS011;68477;42.698;23.342;2023-12-20T11:46:29;103.13;;;46.13;;
79076;SDS011;68477;42.698;23.342;2023-12-20T11:48:56;89.40;;;43.42;;
79076;SDS011;68477;42.698;23.342;2023-12-20T11:51:22;103.60;;;43.92;;
79076;SDS011;68477;42.698;23.342;2023-12-20T11:53:51;121.60;;;46.65;;
79076;SDS011;68477;42.698;23.342;2023-12-20T11:56:18;114.18;;;45.20;;
79076;SDS011;68477;42.698;23.342;2023-12-20T11:58:44;107.00;;;46.63;;
79076;SDS011;68477;42.698;23.342;2023-12-20T12:01:09;101.05;;;42.85;;
79076;SDS011;68477;42.698;23.342;2023-12-20T12:03:35;95.40;;;41.63;;
79076;SDS011;68477;42.698;23.342;2023-12-20T12:06:01;93.50;;;37.97;;
79076;SDS011;68477;42.698;23.342;2023-12-20T12:08:29;87.07;;;41.33;;
79076;SDS011;68477;42.698;23.342;2023-12-20T12:10:55;89.28;;;40.78;;
79076;SDS011;68477;42.698;23.342;2023-12-20T12:13:20;96.70;;;40.28;;
79076;SDS011;68477;42.698;23.342;2023-12-20T12:15:46;98.20;;;41.13;;
79076;SDS011;68477;42.698;23.342;2023-12-20T12:18:15;107.55;;;43.30;;
79076;SDS011;68477;42.698;23.342;2023-12-20T12:20:41;98.30;;;41.08;;
79076;SDS011;68477;42.698;23.342;2023-12-20T12:23:07;99.45;;;43.95;;
79076;SDS011;68477;42.698;23.342;2023-12-20T12:25:36;109.15;;;41.30;;
79076;SDS011;68477;42.698;23.342;2023-12-20T12:28:03;91.55;;;42.17;;
79076;SDS011;68477;42.698;23.342;2023-12-20T12:30:29;90.65;;;43.05;;
79076;SDS011;68477;42.698;23.342;2023-12-20T12:32:55;104.70;;;42.33;;
79076;SDS011;68477;42.698;23.342;2023-12-20T12:35:21;91.38;;;39.95;;
79076;SDS011;68477;42.698;23.342;2023-12-20T12:37:47;104.47;;;43.13;;
79076;SDS011;68477;42.698;23.342;2023-12-20T12:40:14;104.00;;;43.63;;
79076;SDS011;68477;42.698;23.342;2023-12-20T12:42:41;105.78;;;42.38;;
79076;SDS011;68477;42.698;23.342;2023-12-20T12:45:07;112.95;;;44.83;;
79076;SDS011;68477;42.698;23.342;2023-12-20T12:47:33;105.80;;;43.25;;
79076;SDS011;68477;42.698;23.342;2023-12-20T12:49:59;96.40;;;40.33;;
79076;SDS011;68477;42.698;23.342;2023-12-20T12:52:25;104.25;;;42.63;;
79076;SDS011;68477;42.698;23.342;2023-12-20T12:54:52;102.10;;;41.72;;
79076;SDS011;68477;42.698;23.342;2023-12-20T12:57:18;97.88;;;44.15;;
79076;SDS011;68477;42.698;23.342;2023-12-20T12:59:44;95.07;;;41.35;;
79076;SDS011;68477;42.698;23.342;2023-12-20T13:02:13;92.78;;;37.00;;
79076;SDS011;68477;42.698;23.342;2023-12-20T13:04:40;95.47;;;39.63;;
79076;SDS011;68477;42.698;23.342;2023-12-20T13:07:06;100.47;;;40.88;;
79076;SDS011;68477;42.698;23.342;2023-12-20T13:09:38;92.10;;;40.58;;
79076;SDS011;68477;42.698;23.342;2023-12-20T13:12:05;101.88;;;40.33;;
79076;SDS011;68477;42.698;23.342;2023-12-20T13:14:34;96.32;;;39.63;;
79076;SDS011;68477;42.698;23.342;2023-12-20T13:17:02;95.25;;;38.70;;
79076;SDS011;68477;42.698;23.342;2023-12-20T13:19:28;88.90;;;36.95;;
79076;SDS011;68477;42.698;23.342;2023-12-20T13:21:55;86.47;;;31.90;;
79076;SDS011;68477;42.698;23.342;2023-12-20T13:24:21;80.93;;;32.85;;
79076;SDS011;68477;42.698;23.342;2023-12-20T13:26:46;77.25;;;32.65;;
79076;SDS011;68477;42.698;23.342;2023-12-20T13:29:12;64.95;;;27.52;;
79076;SDS011;68477;42.698;23.342;2023-12-20T13:31:37;82.85;;;35.38;;
79076;SDS011;68477;42.698;23.342;2023-12-20T13:34:04;80.90;;;32.33;;
79076;SDS011;68477;42.698;23.342;2023-12-20T13:36:30;81.53;;;34.75;;
79076;SDS011;68477;42.698;23.342;2023-12-20T13:38:56;78.43;;;34.50;;
79076;SDS011;68477;42.698;23.342;2023-12-20T13:41:21;82.82;;;32.83;;
79076;SDS011;68477;42.698;23.342;2023-12-20T13:43:47;86.63;;;33.97;;
79076;SDS011;68477;42.698;23.342;2023-12-20T13:46:12;88.75;;;33.45;;
79076;SDS011;68477;42.698;23.342;2023-12-20T13:48:39;97.80;;;36.40;;
79076;SDS011;68477;42.698;23.342;2023-12-20T13:51:04;86.90;;;35.30;;
79076;SDS011;68477;42.698;23.342;2023-12-20T13:53:31;93.20;;;36.60;;
79076;SDS011;68477;42.698;23.342;2023-12-20T13:55:56;85.68;;;34.63;;
79076;SDS011;68477;42.698;23.342;2023-12-20T13:58:23;85.82;;;34.30;;
79076;SDS011;68477;42.698;23.342;2023-12-20T14:00:48;98.20;;;36.88;;
79076;SDS011;68477;42.698;23.342;2023-12-20T14:03:14;90.82;;;35.15;;
79076;SDS011;68477;42.698;23.342;2023-12-20T14:05:40;91.53;;;36.58;;
79076;SDS011;68477;42.698;23.342;2023-12-20T14:08:06;93.88;;;34.05;;
79076;SDS011;68477;42.698;23.342;2023-12-20T14:10:32;98.35;;;34.78;;